sensor_id;sensor_type;location;lat;lon;timestamp;P1;durP1;ratioP1;P2;durP2;ratioP2
56629;SDS011;42502;40.732;-74.254;2022-09-06T00:01:23;3.90;;;0.70;;
56629;SDS011;42502;40.732;-74.254;2022-09-06T00:03:24;1.73;;;0.80;;
56629;SDS011;42502;40.732;-74.254;2022-09-06T00:05:27;0.80;;;0.70;;
56629;SDS011;42502;40.732;-74.254;2022-09-06T00:07:29;0.90;;;0.70;;
56629;SDS011;42502;40.732;-74.254;2022-09-06T00:09:30;0.60;;;0.60;;
56629;SDS011;42502;40.732;-74.254;2022-09-06T00:11:31;0.70;;;0.70;;
56629;SDS011;42502;40.732;-74.254;2022-09-06T00:13:32;1.67;;;0.68;;
56629;SDS011;42502;40.732;-74.254;2022-09-06T00:15:33;0.90;;;0.60;;
56629;SDS011;42502;40.732;-74.254;2022-09-06T00:17:35;0.68;;;0.52;;
56629;SDS011;42502;40.732;-74.254;2022-09-06T00:19:36;0.65;;;0.65;;
56629;SDS011;42502;40.732;-74.254;2022-09-06T00:21:36;0.60;;;0.60;;
56629;SDS011;42502;40.732;-74.254;2022-09-06T00:23:37;0.88;;;0.60;;
56629;SDS011;42502;40.732;-74.254;2022-09-06T00:25:38;5.40;;;0.70;;
56629;SDS011;42502;40.732;-74.254;2022-09-06T00:27:40;5.18;;;0.70;;
56629;SDS011;42502;40.732;-74.254;2022-09-06T00:29:41;1.98;;;0.80;;
56629;SDS011;42502;40.732;-74.254;2022-09-06T00:31:41;2.95;;;0.77;;
56629;SDS011;42502;40.732;-74.254;2022-09-06T00:33:42;2.45;;;0.60;;
56629;SDS011;42502;40.732;-74.254;2022-09-06T00:35:43;2.05;;;0.63;;
56629;SDS011;42502;40.732;-74.254;2022-09-06T00:37:46;3.50;;;0.70;;
56629;SDS011;42502;40.732;-74.254;2022-09-06T00:39:47;3.47;;;0.80;;
56629;SDS011;42502;40.732;-74.254;2022-09-06T00:41:48;1.13;;;0.60;;
56629;SDS011;42502;40.732;-74.254;2022-09-06T00:43:49;2.78;;;0.80;;
56629;SDS011;42502;40.732;-74.254;2022-09-06T00:45:50;2.10;;;0.65;;
56629;SDS011;42502;40.732;-74.254;2022-09-06T00:47:52;1.85;;;0.75;;
56629;SDS011;42502;40.732;-74.254;2022-09-06T00:49:54;1.35;;;0.80;;
56629;SDS011;42502;40.732;-74.254;2022-09-06T00:51:59;2.70;;;0.80;;
56629;SDS011;42502;40.732;-74.254;2022-09-06T00:54:03;19.80;;;1.02;;
56629;SDS011;42502;40.732;-74.254;2022-09-06T00:56:05;1.77;;;0.80;;
56629;SDS011;42502;40.732;-74.254;2022-09-06T00:58:06;1.08;;;0.70;;
56629;SDS011;42502;40.732;-74.254;2022-09-06T01:00:08;0.85;;;0.65;;
56629;SDS011;42502;40.732;-74.254;2022-09-06T01:02:09;1.45;;;0.70;;
56629;SDS011;42502;40.732;-74.254;2022-09-06T01:04:10;2.25;;;0.73;;
56629;SDS011;42502;40.732;-74.254;2022-09-06T01:13:47;0.70;;;0.70;;
56629;SDS011;42502;40.732;-74.254;2022-09-06T01:16:11;1.00;;;0.60;;
56629;SDS011;42502;40.732;-74.254;2022-09-06T01:20:55;1.60;;;0.80;;
56629;SDS011;42502;40.732;-74.254;2022-09-06T01:30:01;2.05;;;0.70;;
56629;SDS011;42502;40.732;-74.254;2022-09-06T01:34:30;0.70;;;0.70;;
56629;SDS011;42502;40.732;-74.254;2022-09-06T01:36:55;1.20;;;0.65;;
56629;SDS011;42502;40.732;-74.254;2022-09-06T01:39:00;1.35;;;0.68;;
56629;SDS011;42502;40.732;-74.254;2022-09-06T01:41:01;2.65;;;0.90;;
56629;SDS011;42502;40.732;-74.254;2022-09-06T01:43:02;2.58;;;0.98;;
56629;SDS011;42502;40.732;-74.254;2022-09-06T01:45:10;2.03;;;0.85;;
56629;SDS011;42502;40.732;-74.254;2022-09-06T01:47:17;2.25;;;0.70;;
56629;SDS011;42502;40.732;-74.254;2022-09-06T01:49:32;0.93;;;0.68;;
56629;SDS011;42502;40.732;-74.254;2022-09-06T01:56:42;0.98;;;0.80;;
56629;SDS011;42502;40.732;-74.254;2022-09-06T02:01:04;2.78;;;0.70;;
56629;SDS011;42502;40.732;-74.254;2022-09-06T02:05:45;1.02;;;0.70;;
56629;SDS011;42502;40.732;-74.254;2022-09-06T02:07:51;1.20;;;0.82;;
56629;SDS011;42502;40.732;-74.254;2022-09-06T02:12:09;0.85;;;0.70;;
56629;SDS011;42502;40.732;-74.254;2022-09-06T02:14:17;1.45;;;0.80;;
56629;SDS011;42502;40.732;-74.254;2022-09-06T02:16:24;4.78;;;0.88;;
56629;SDS011;42502;40.732;-74.254;2022-09-06T02:18:28;6.07;;;0.90;;
56629;SDS011;42502;40.732;-74.254;2022-09-06T02:20:36;2.15;;;0.80;;
56629;SDS011;42502;40.732;-74.254;2022-09-06T02:22:43;3.03;;;0.90;;
56629;SDS011;42502;40.732;-74.254;2022-09-06T02:24:46;0.73;;;0.70;;
56629;SDS011;42502;40.732;-74.254;2022-09-06T02:26:50;1.15;;;0.70;;
56629;SDS011;42502;40.732;-74.254;2022-09-06T02:28:51;1.40;;;0.70;;
56629;SDS011;42502;40.732;-74.254;2022-09-06T02:30:54;0.85;;;0.70;;
56629;SDS011;42502;40.732;-74.254;2022-09-06T02:33:00;3.00;;;0.90;;
56629;SDS011;42502;40.732;-74.254;2022-09-06T02:35:11;1.75;;;0.85;;
56629;SDS011;42502;40.732;-74.254;2022-09-06T02:37:14;0.73;;;0.70;;
56629;SDS011;42502;40.732;-74.254;2022-09-06T02:39:17;1.02;;;0.82;;
56629;SDS011;42502;40.732;-74.254;2022-09-06T02:41:18;0.70;;;0.70;;
56629;SDS011;42502;40.732;-74.254;2022-09-06T02:43:22;1.92;;;0.77;;
56629;SDS011;42502;40.732;-74.254;2022-09-06T02:45:22;1.67;;;0.70;;
56629;SDS011;42502;40.732;-74.254;2022-09-06T02:47:23;2.15;;;0.75;;
56629;SDS011;42502;40.732;-74.254;2022-09-06T02:49:24;0.77;;;0.70;;
56629;SDS011;42502;40.732;-74.254;2022-09-06T02:51:25;0.65;;;0.63;;
56629;SDS011;42502;40.732;-74.254;2022-09-06T02:53:26;1.67;;;0.80;;
56629;SDS011;42502;40.732;-74.254;2022-09-06T02:55:26;1.25;;;0.70;;
56629;SDS011;42502;40.732;-74.254;2022-09-06T02:57:27;1.65;;;0.80;;
56629;SDS011;42502;40.732;-74.254;2022-09-06T02:59:28;1.02;;;0.80;;
56629;SDS011;42502;40.732;-74.254;2022-09-06T03:01:29;0.90;;;0.70;;
56629;SDS011;42502;40.732;-74.254;2022-09-06T03:03:30;1.08;;;0.70;;
56629;SDS011;42502;40.732;-74.254;2022-09-06T03:05:30;1.00;;;0.73;;
56629;SDS011;42502;40.732;-74.254;2022-09-06T03:07:32;1.67;;;0.90;;
56629;SDS011;42502;40.732;-74.254;2022-09-06T03:09:32;3.30;;;0.80;;
56629;SDS011;42502;40.732;-74.254;2022-09-06T03:11:34;1.17;;;0.80;;
56629;SDS011;42502;40.732;-74.254;2022-09-06T03:13:35;1.38;;;0.77;;
56629;SDS011;42502;40.732;-74.254;2022-09-06T03:15:36;0.80;;;0.80;;
56629;SDS011;42502;40.732;-74.254;2022-09-06T03:17:37;0.98;;;0.88;;
56629;SDS011;42502;40.732;-74.254;2022-09-06T03:19:38;1.17;;;0.80;;
56629;SDS011;42502;40.732;-74.254;2022-09-06T03:21:41;1.15;;;0.80;;
56629;SDS011;42502;40.732;-74.254;2022-09-06T03:23:41;1.80;;;0.80;;
56629;SDS011;42502;40.732;-74.254;2022-09-06T03:25:42;0.80;;;0.70;;
56629;SDS011;42502;40.732;-74.254;2022-09-06T03:27:43;1.55;;;0.70;;
56629;SDS011;42502;40.732;-74.254;2022-09-06T03:29:44;0.80;;;0.80;;
56629;SDS011;42502;40.732;-74.254;2022-09-06T03:31:45;0.93;;;0.80;;
56629;SDS011;42502;40.732;-74.254;2022-09-06T03:33:46;1.05;;;0.80;;
56629;SDS011;42502;40.732;-74.254;2022-09-06T03:35:57;1.20;;;0.77;;
56629;SDS011;42502;40.732;-74.254;2022-09-06T03:37:59;1.42;;;0.80;;
56629;SDS011;42502;40.732;-74.254;2022-09-06T03:40:01;1.13;;;0.80;;
56629;SDS011;42502;40.732;-74.254;2022-09-06T03:42:03;1.88;;;1.13;;
56629;SDS011;42502;40.732;-74.254;2022-09-06T03:44:04;3.22;;;1.00;;
56629;SDS011;42502;40.732;-74.254;2022-09-06T03:46:05;4.50;;;1.10;;
56629;SDS011;42502;40.732;-74.254;2022-09-06T03:48:05;4.10;;;1.00;;
56629;SDS011;42502;40.732;-74.254;2022-09-06T03:50:06;2.35;;;1.10;;
56629;SDS011;42502;40.732;-74.254;2022-09-06T03:52:07;4.30;;;1.38;;
56629;SDS011;42502;40.732;-74.254;2022-09-06T03:54:08;3.85;;;0.90;;
56629;SDS011;42502;40.732;-74.254;2022-09-06T03:56:09;3.35;;;1.27;;
56629;SDS011;42502;40.732;-74.254;2022-09-06T03:58:10;3.63;;;1.08;;
56629;SDS011;42502;40.732;-74.254;2022-09-06T04:00:11;3.40;;;0.90;;
56629;SDS011;42502;40.732;-74.254;2022-09-06T04:02:13;3.15;;;1.23;;
56629;SDS011;42502;40.732;-74.254;2022-09-06T04:04:13;4.20;;;1.10;;
56629;SDS011;42502;40.732;-74.254;2022-09-06T04:06:14;3.85;;;1.40;;
56629;SDS011;42502;40.732;-74.254;2022-09-06T04:08:15;3.80;;;1.00;;
56629;SDS011;42502;40.732;-74.254;2022-09-06T04:10:16;2.67;;;1.05;;
56629;SDS011;42502;40.732;-74.254;2022-09-06T04:12:16;2.40;;;1.00;;
56629;SDS011;42502;40.732;-74.254;2022-09-06T04:14:17;2.72;;;1.30;;
56629;SDS011;42502;40.732;-74.254;2022-09-06T04:16:18;2.70;;;1.10;;
56629;SDS011;42502;40.732;-74.254;2022-09-06T04:18:19;2.45;;;1.10;;
56629;SDS011;42502;40.732;-74.254;2022-09-06T04:20:20;4.10;;;0.98;;
56629;SDS011;42502;40.732;-74.254;2022-09-06T04:22:21;3.45;;;1.05;;
56629;SDS011;42502;40.732;-74.254;2022-09-06T04:24:22;2.65;;;1.20;;
56629;SDS011;42502;40.732;-74.254;2022-09-06T04:26:22;2.17;;;0.98;;
56629;SDS011;42502;40.732;-74.254;2022-09-06T04:28:23;5.43;;;1.00;;
56629;SDS011;42502;40.732;-74.254;2022-09-06T04:30:25;2.33;;;1.20;;
56629;SDS011;42502;40.732;-74.254;2022-09-06T04:32:26;2.38;;;1.00;;
56629;SDS011;42502;40.732;-74.254;2022-09-06T04:34:27;2.58;;;0.93;;
56629;SDS011;42502;40.732;-74.254;2022-09-06T04:36:28;3.22;;;0.80;;
56629;SDS011;42502;40.732;-74.254;2022-09-06T04:38:29;2.28;;;0.90;;
56629;SDS011;42502;40.732;-74.254;2022-09-06T04:40:33;1.48;;;1.00;;
56629;SDS011;42502;40.732;-74.254;2022-09-06T04:42:34;5.90;;;1.00;;
56629;SDS011;42502;40.732;-74.254;2022-09-06T04:44:35;1.88;;;1.17;;
56629;SDS011;42502;40.732;-74.254;2022-09-06T04:46:36;1.98;;;1.00;;
56629;SDS011;42502;40.732;-74.254;2022-09-06T04:48:37;2.38;;;0.90;;
56629;SDS011;42502;40.732;-74.254;2022-09-06T04:50:37;1.98;;;1.00;;
56629;SDS011;42502;40.732;-74.254;2022-09-06T04:52:39;2.78;;;0.88;;
56629;SDS011;42502;40.732;-74.254;2022-09-06T04:54:39;2.00;;;1.02;;
56629;SDS011;42502;40.732;-74.254;2022-09-06T04:56:40;2.60;;;1.00;;
56629;SDS011;42502;40.732;-74.254;2022-09-06T04:58:42;1.70;;;0.90;;
56629;SDS011;42502;40.732;-74.254;2022-09-06T05:00:43;1.20;;;0.95;;
56629;SDS011;42502;40.732;-74.254;2022-09-06T05:02:44;2.15;;;0.88;;
56629;SDS011;42502;40.732;-74.254;2022-09-06T05:04:45;0.80;;;0.80;;
56629;SDS011;42502;40.732;-74.254;2022-09-06T05:06:45;1.10;;;0.90;;
56629;SDS011;42502;40.732;-74.254;2022-09-06T05:08:46;2.45;;;0.80;;
56629;SDS011;42502;40.732;-74.254;2022-09-06T05:10:49;1.52;;;0.88;;
56629;SDS011;42502;40.732;-74.254;2022-09-06T05:12:51;1.88;;;0.80;;
56629;SDS011;42502;40.732;-74.254;2022-09-06T05:14:53;1.25;;;0.82;;
56629;SDS011;42502;40.732;-74.254;2022-09-06T05:16:54;1.55;;;0.90;;
56629;SDS011;42502;40.732;-74.254;2022-09-06T05:18:55;1.92;;;0.90;;
56629;SDS011;42502;40.732;-74.254;2022-09-06T05:20:59;1.13;;;0.77;;
56629;SDS011;42502;40.732;-74.254;2022-09-06T05:23:00;1.50;;;0.80;;
56629;SDS011;42502;40.732;-74.254;2022-09-06T05:25:01;0.90;;;0.80;;
56629;SDS011;42502;40.732;-74.254;2022-09-06T05:27:02;1.70;;;0.80;;
56629;SDS011;42502;40.732;-74.254;2022-09-06T05:29:04;1.52;;;0.95;;
56629;SDS011;42502;40.732;-74.254;2022-09-06T05:31:09;1.05;;;0.82;;
56629;SDS011;42502;40.732;-74.254;2022-09-06T05:33:12;1.42;;;1.00;;
56629;SDS011;42502;40.732;-74.254;2022-09-06T05:35:18;2.20;;;0.80;;
56629;SDS011;42502;40.732;-74.254;2022-09-06T05:37:19;1.45;;;0.60;;
56629;SDS011;42502;40.732;-74.254;2022-09-06T05:39:19;0.98;;;0.88;;
56629;SDS011;42502;40.732;-74.254;2022-09-06T05:41:26;0.85;;;0.80;;
56629;SDS011;42502;40.732;-74.254;2022-09-06T05:43:27;1.00;;;0.90;;
56629;SDS011;42502;40.732;-74.254;2022-09-06T05:45:28;1.38;;;0.90;;
56629;SDS011;42502;40.732;-74.254;2022-09-06T05:47:28;1.73;;;0.90;;
56629;SDS011;42502;40.732;-74.254;2022-09-06T05:49:33;0.70;;;0.70;;
56629;SDS011;42502;40.732;-74.254;2022-09-06T05:51:34;1.05;;;0.88;;
56629;SDS011;42502;40.732;-74.254;2022-09-06T05:53:42;1.20;;;0.77;;
56629;SDS011;42502;40.732;-74.254;2022-09-06T05:55:46;0.88;;;0.80;;
56629;SDS011;42502;40.732;-74.254;2022-09-06T05:57:46;1.38;;;0.70;;
56629;SDS011;42502;40.732;-74.254;2022-09-06T05:59:47;0.90;;;0.80;;
56629;SDS011;42502;40.732;-74.254;2022-09-06T06:01:49;1.20;;;0.77;;
56629;SDS011;42502;40.732;-74.254;2022-09-06T06:05:54;1.13;;;0.82;;
56629;SDS011;42502;40.732;-74.254;2022-09-06T06:07:55;1.02;;;0.80;;
56629;SDS011;42502;40.732;-74.254;2022-09-06T06:09:57;1.05;;;0.80;;
56629;SDS011;42502;40.732;-74.254;2022-09-06T06:11:58;1.25;;;0.90;;
56629;SDS011;42502;40.732;-74.254;2022-09-06T06:13:58;1.15;;;0.80;;
56629;SDS011;42502;40.732;-74.254;2022-09-06T06:16:00;0.73;;;0.63;;
56629;SDS011;42502;40.732;-74.254;2022-09-06T06:18:02;0.68;;;0.68;;
56629;SDS011;42502;40.732;-74.254;2022-09-06T06:20:03;0.80;;;0.80;;
56629;SDS011;42502;40.732;-74.254;2022-09-06T06:22:04;1.08;;;0.80;;
56629;SDS011;42502;40.732;-74.254;2022-09-06T06:24:04;1.13;;;0.80;;
56629;SDS011;42502;40.732;-74.254;2022-09-06T06:26:06;0.80;;;0.73;;
56629;SDS011;42502;40.732;-74.254;2022-09-06T06:28:07;0.80;;;0.70;;
56629;SDS011;42502;40.732;-74.254;2022-09-06T06:30:08;0.95;;;0.70;;
56629;SDS011;42502;40.732;-74.254;2022-09-06T06:32:09;2.22;;;0.93;;
56629;SDS011;42502;40.732;-74.254;2022-09-06T06:34:10;0.70;;;0.70;;
56629;SDS011;42502;40.732;-74.254;2022-09-06T06:38:12;0.65;;;0.65;;
56629;SDS011;42502;40.732;-74.254;2022-09-06T06:40:12;1.25;;;0.80;;
56629;SDS011;42502;40.732;-74.254;2022-09-06T06:42:13;0.73;;;0.70;;
56629;SDS011;42502;40.732;-74.254;2022-09-06T06:44:15;1.33;;;0.80;;
56629;SDS011;42502;40.732;-74.254;2022-09-06T06:46:16;1.33;;;0.80;;
56629;SDS011;42502;40.732;-74.254;2022-09-06T06:48:18;0.70;;;0.70;;
56629;SDS011;42502;40.732;-74.254;2022-09-06T06:50:19;0.80;;;0.80;;
56629;SDS011;42502;40.732;-74.254;2022-09-06T06:52:20;0.98;;;0.90;;
56629;SDS011;42502;40.732;-74.254;2022-09-06T06:54:23;1.05;;;0.70;;
56629;SDS011;42502;40.732;-74.254;2022-09-06T06:56:27;0.70;;;0.70;;
56629;SDS011;42502;40.732;-74.254;2022-09-06T06:58:33;0.80;;;0.80;;
56629;SDS011;42502;40.732;-74.254;2022-09-06T07:00:33;0.70;;;0.70;;
56629;SDS011;42502;40.732;-74.254;2022-09-06T07:02:34;0.70;;;0.70;;
56629;SDS011;42502;40.732;-74.254;2022-09-06T07:04:35;1.30;;;0.88;;
56629;SDS011;42502;40.732;-74.254;2022-09-06T07:06:49;0.85;;;0.70;;
56629;SDS011;42502;40.732;-74.254;2022-09-06T07:08:51;1.85;;;0.80;;
56629;SDS011;42502;40.732;-74.254;2022-09-06T07:10:52;1.50;;;0.70;;
56629;SDS011;42502;40.732;-74.254;2022-09-06T07:12:53;0.80;;;0.80;;
56629;SDS011;42502;40.732;-74.254;2022-09-06T07:14:54;1.17;;;0.70;;
56629;SDS011;42502;40.732;-74.254;2022-09-06T07:16:54;0.80;;;0.73;;
56629;SDS011;42502;40.732;-74.254;2022-09-06T07:18:58;1.30;;;0.90;;
56629;SDS011;42502;40.732;-74.254;2022-09-06T07:20:59;0.80;;;0.70;;
56629;SDS011;42502;40.732;-74.254;2022-09-06T07:23:00;0.60;;;0.60;;
56629;SDS011;42502;40.732;-74.254;2022-09-06T07:25:05;0.70;;;0.70;;
56629;SDS011;42502;40.732;-74.254;2022-09-06T07:27:07;1.10;;;0.80;;
56629;SDS011;42502;40.732;-74.254;2022-09-06T07:29:08;1.33;;;0.70;;
56629;SDS011;42502;40.732;-74.254;2022-09-06T07:31:09;1.33;;;0.70;;
56629;SDS011;42502;40.732;-74.254;2022-09-06T07:33:10;0.80;;;0.73;;
56629;SDS011;42502;40.732;-74.254;2022-09-06T07:35:11;0.75;;;0.70;;
56629;SDS011;42502;40.732;-74.254;2022-09-06T07:37:13;0.75;;;0.75;;
56629;SDS011;42502;40.732;-74.254;2022-09-06T07:39:14;0.60;;;0.60;;
56629;SDS011;42502;40.732;-74.254;2022-09-06T07:41:14;1.08;;;0.98;;
56629;SDS011;42502;40.732;-74.254;2022-09-06T07:43:17;0.70;;;0.70;;
56629;SDS011;42502;40.732;-74.254;2022-09-06T07:45:18;0.98;;;0.70;;
56629;SDS011;42502;40.732;-74.254;2022-09-06T07:47:18;0.80;;;0.80;;
56629;SDS011;42502;40.732;-74.254;2022-09-06T07:49:20;0.70;;;0.70;;
56629;SDS011;42502;40.732;-74.254;2022-09-06T07:51:21;1.67;;;0.70;;
56629;SDS011;42502;40.732;-74.254;2022-09-06T07:53:22;0.90;;;0.77;;
56629;SDS011;42502;40.732;-74.254;2022-09-06T07:55:23;0.90;;;0.75;;
56629;SDS011;42502;40.732;-74.254;2022-09-06T07:57:25;1.45;;;0.90;;
56629;SDS011;42502;40.732;-74.254;2022-09-06T07:59:25;1.05;;;0.90;;
56629;SDS011;42502;40.732;-74.254;2022-09-06T08:01:36;1.23;;;0.80;;
56629;SDS011;42502;40.732;-74.254;2022-09-06T08:03:38;0.75;;;0.70;;
56629;SDS011;42502;40.732;-74.254;2022-09-06T08:05:38;0.77;;;0.75;;
56629;SDS011;42502;40.732;-74.254;2022-09-06T08:07:39;1.05;;;0.75;;
56629;SDS011;42502;40.732;-74.254;2022-09-06T08:09:40;0.65;;;0.65;;
56629;SDS011;42502;40.732;-74.254;2022-09-06T08:11:41;0.70;;;0.70;;
56629;SDS011;42502;40.732;-74.254;2022-09-06T08:13:41;1.45;;;0.70;;
56629;SDS011;42502;40.732;-74.254;2022-09-06T08:15:42;0.60;;;0.60;;
56629;SDS011;42502;40.732;-74.254;2022-09-06T08:17:46;0.77;;;0.70;;
56629;SDS011;42502;40.732;-74.254;2022-09-06T08:19:47;0.80;;;0.80;;
56629;SDS011;42502;40.732;-74.254;2022-09-06T08:21:48;0.70;;;0.70;;
56629;SDS011;42502;40.732;-74.254;2022-09-06T08:23:50;0.90;;;0.70;;
56629;SDS011;42502;40.732;-74.254;2022-09-06T08:25:59;0.70;;;0.70;;
56629;SDS011;42502;40.732;-74.254;2022-09-06T08:28:00;0.70;;;0.70;;
56629;SDS011;42502;40.732;-74.254;2022-09-06T08:30:01;1.00;;;0.70;;
56629;SDS011;42502;40.732;-74.254;2022-09-06T08:32:02;0.80;;;0.80;;
56629;SDS011;42502;40.732;-74.254;2022-09-06T08:34:03;0.65;;;0.60;;
56629;SDS011;42502;40.732;-74.254;2022-09-06T08:36:04;0.80;;;0.70;;
56629;SDS011;42502;40.732;-74.254;2022-09-06T08:38:06;1.00;;;0.80;;
56629;SDS011;42502;40.732;-74.254;2022-09-06T08:40:06;1.10;;;0.80;;
56629;SDS011;42502;40.732;-74.254;2022-09-06T08:42:08;0.80;;;0.80;;
56629;SDS011;42502;40.732;-74.254;2022-09-06T08:44:13;0.70;;;0.70;;
56629;SDS011;42502;40.732;-74.254;2022-09-06T08:46:16;0.85;;;0.70;;
56629;SDS011;42502;40.732;-74.254;2022-09-06T08:48:19;0.73;;;0.70;;
56629;SDS011;42502;40.732;-74.254;2022-09-06T08:50:21;1.00;;;0.70;;
56629;SDS011;42502;40.732;-74.254;2022-09-06T08:54:56;0.68;;;0.60;;
56629;SDS011;42502;40.732;-74.254;2022-09-06T09:04:17;0.75;;;0.60;;
56629;SDS011;42502;40.732;-74.254;2022-09-06T09:06:21;0.73;;;0.60;;
56629;SDS011;42502;40.732;-74.254;2022-09-06T09:10:38;0.63;;;0.63;;
56629;SDS011;42502;40.732;-74.254;2022-09-06T09:12:43;1.20;;;0.60;;
56629;SDS011;42502;40.732;-74.254;2022-09-06T09:14:46;1.60;;;0.95;;
56629;SDS011;42502;40.732;-74.254;2022-09-06T09:16:56;0.98;;;0.77;;
56629;SDS011;42502;40.732;-74.254;2022-09-06T09:19:03;1.02;;;0.80;;
56629;SDS011;42502;40.732;-74.254;2022-09-06T09:21:05;0.93;;;0.70;;
56629;SDS011;42502;40.732;-74.254;2022-09-06T09:23:05;0.70;;;0.60;;
56629;SDS011;42502;40.732;-74.254;2022-09-06T09:25:07;0.60;;;0.60;;
56629;SDS011;42502;40.732;-74.254;2022-09-06T09:27:11;0.70;;;0.65;;
56629;SDS011;42502;40.732;-74.254;2022-09-06T09:29:16;0.98;;;0.70;;
56629;SDS011;42502;40.732;-74.254;2022-09-06T09:31:20;1.33;;;0.73;;
56629;SDS011;42502;40.732;-74.254;2022-09-06T09:33:34;0.82;;;0.60;;
56629;SDS011;42502;40.732;-74.254;2022-09-06T09:35:39;0.73;;;0.70;;
56629;SDS011;42502;40.732;-74.254;2022-09-06T09:37:41;0.60;;;0.60;;
56629;SDS011;42502;40.732;-74.254;2022-09-06T09:39:43;0.80;;;0.73;;
56629;SDS011;42502;40.732;-74.254;2022-09-06T09:41:44;0.65;;;0.65;;
56629;SDS011;42502;40.732;-74.254;2022-09-06T09:43:55;1.27;;;0.70;;
56629;SDS011;42502;40.732;-74.254;2022-09-06T09:48:19;0.60;;;0.60;;
56629;SDS011;42502;40.732;-74.254;2022-09-06T09:50:30;1.10;;;0.55;;
56629;SDS011;42502;40.732;-74.254;2022-09-06T09:52:33;2.40;;;0.70;;
56629;SDS011;42502;40.732;-74.254;2022-09-06T09:54:44;1.05;;;0.70;;
56629;SDS011;42502;40.732;-74.254;2022-09-06T09:56:49;0.50;;;0.50;;
56629;SDS011;42502;40.732;-74.254;2022-09-06T09:58:54;1.08;;;0.60;;
56629;SDS011;42502;40.732;-74.254;2022-09-06T10:01:10;0.70;;;0.70;;
56629;SDS011;42502;40.732;-74.254;2022-09-06T10:03:18;0.90;;;0.63;;
56629;SDS011;42502;40.732;-74.254;2022-09-06T10:05:28;0.60;;;0.60;;
56629;SDS011;42502;40.732;-74.254;2022-09-06T10:07:29;1.08;;;0.70;;
56629;SDS011;42502;40.732;-74.254;2022-09-06T10:09:33;0.60;;;0.60;;
56629;SDS011;42502;40.732;-74.254;2022-09-06T10:11:39;1.40;;;0.70;;
56629;SDS011;42502;40.732;-74.254;2022-09-06T10:13:49;0.70;;;0.70;;
56629;SDS011;42502;40.732;-74.254;2022-09-06T10:16:09;1.60;;;0.70;;
56629;SDS011;42502;40.732;-74.254;2022-09-06T10:18:43;1.65;;;0.70;;
56629;SDS011;42502;40.732;-74.254;2022-09-06T10:20:42;0.60;;;0.60;;
56629;SDS011;42502;40.732;-74.254;2022-09-06T10:27:21;1.95;;;0.70;;
56629;SDS011;42502;40.732;-74.254;2022-09-06T10:29:39;1.35;;;0.80;;
56629;SDS011;42502;40.732;-74.254;2022-09-06T10:34:33;0.93;;;0.65;;
56629;SDS011;42502;40.732;-74.254;2022-09-06T10:36:49;0.98;;;0.60;;
56629;SDS011;42502;40.732;-74.254;2022-09-06T10:39:16;0.60;;;0.60;;
56629;SDS011;42502;40.732;-74.254;2022-09-06T10:46:24;0.60;;;0.60;;
56629;SDS011;42502;40.732;-74.254;2022-09-06T10:48:37;0.57;;;0.52;;
56629;SDS011;42502;40.732;-74.254;2022-09-06T10:52:47;0.60;;;0.60;;
56629;SDS011;42502;40.732;-74.254;2022-09-06T10:54:51;1.10;;;0.70;;
56629;SDS011;42502;40.732;-74.254;2022-09-06T10:57:00;0.70;;;0.60;;
56629;SDS011;42502;40.732;-74.254;2022-09-06T11:01:45;1.58;;;0.60;;
56629;SDS011;42502;40.732;-74.254;2022-09-06T11:04:12;1.25;;;0.60;;
56629;SDS011;42502;40.732;-74.254;2022-09-06T11:06:19;5.53;;;0.85;;
56629;SDS011;42502;40.732;-74.254;2022-09-06T11:10:49;0.85;;;0.70;;
56629;SDS011;42502;40.732;-74.254;2022-09-06T11:15:18;1.42;;;0.55;;
56629;SDS011;42502;40.732;-74.254;2022-09-06T11:17:29;1.77;;;0.70;;
56629;SDS011;42502;40.732;-74.254;2022-09-06T11:19:42;1.48;;;0.70;;
56629;SDS011;42502;40.732;-74.254;2022-09-06T11:21:58;1.50;;;0.63;;
56629;SDS011;42502;40.732;-74.254;2022-09-06T11:28:28;1.05;;;0.70;;
56629;SDS011;42502;40.732;-74.254;2022-09-06T11:30:36;2.25;;;0.70;;
56629;SDS011;42502;40.732;-74.254;2022-09-06T11:32:43;3.00;;;0.80;;
56629;SDS011;42502;40.732;-74.254;2022-09-06T11:34:52;1.15;;;0.80;;
56629;SDS011;42502;40.732;-74.254;2022-09-06T11:37:02;0.70;;;0.70;;
56629;SDS011;42502;40.732;-74.254;2022-09-06T11:39:08;0.88;;;0.70;;
56629;SDS011;42502;40.732;-74.254;2022-09-06T11:41:13;1.77;;;0.70;;
56629;SDS011;42502;40.732;-74.254;2022-09-06T11:43:17;1.95;;;0.95;;
56629;SDS011;42502;40.732;-74.254;2022-09-06T11:45:41;2.40;;;0.90;;
56629;SDS011;42502;40.732;-74.254;2022-09-06T11:47:43;1.52;;;0.70;;
56629;SDS011;42502;40.732;-74.254;2022-09-06T11:49:46;1.38;;;0.70;;
56629;SDS011;42502;40.732;-74.254;2022-09-06T11:51:47;3.22;;;0.80;;
56629;SDS011;42502;40.732;-74.254;2022-09-06T11:58:02;3.30;;;0.90;;
56629;SDS011;42502;40.732;-74.254;2022-09-06T12:00:05;2.00;;;0.80;;
56629;SDS011;42502;40.732;-74.254;2022-09-06T12:07:07;3.53;;;1.08;;
56629;SDS011;42502;40.732;-74.254;2022-09-06T12:09:29;2.58;;;0.90;;
56629;SDS011;42502;40.732;-74.254;2022-09-06T12:11:37;2.65;;;0.85;;
56629;SDS011;42502;40.732;-74.254;2022-09-06T12:13:47;2.65;;;0.82;;
56629;SDS011;42502;40.732;-74.254;2022-09-06T12:15:59;3.80;;;0.98;;
56629;SDS011;42502;40.732;-74.254;2022-09-06T12:18:00;1.58;;;0.80;;
56629;SDS011;42502;40.732;-74.254;2022-09-06T12:20:02;2.55;;;1.00;;
56629;SDS011;42502;40.732;-74.254;2022-09-06T12:26:44;3.00;;;1.02;;
56629;SDS011;42502;40.732;-74.254;2022-09-06T12:28:51;2.30;;;0.90;;
56629;SDS011;42502;40.732;-74.254;2022-09-06T12:30:52;3.85;;;1.10;;
56629;SDS011;42502;40.732;-74.254;2022-09-06T12:32:53;6.13;;;1.17;;
56629;SDS011;42502;40.732;-74.254;2022-09-06T12:34:54;3.55;;;1.00;;
56629;SDS011;42502;40.732;-74.254;2022-09-06T12:37:00;6.97;;;1.10;;
56629;SDS011;42502;40.732;-74.254;2022-09-06T12:39:12;3.42;;;1.00;;
56629;SDS011;42502;40.732;-74.254;2022-09-06T12:41:13;2.90;;;1.00;;
56629;SDS011;42502;40.732;-74.254;2022-09-06T12:43:14;3.45;;;1.20;;
56629;SDS011;42502;40.732;-74.254;2022-09-06T12:45:17;2.60;;;1.00;;
56629;SDS011;42502;40.732;-74.254;2022-09-06T12:49:28;2.63;;;1.10;;
56629;SDS011;42502;40.732;-74.254;2022-09-06T12:51:29;2.90;;;1.05;;
56629;SDS011;42502;40.732;-74.254;2022-09-06T12:53:30;3.78;;;1.20;;
56629;SDS011;42502;40.732;-74.254;2022-09-06T12:55:32;1.63;;;0.88;;
56629;SDS011;42502;40.732;-74.254;2022-09-06T12:57:37;3.97;;;1.08;;
56629;SDS011;42502;40.732;-74.254;2022-09-06T12:59:54;1.40;;;1.00;;
56629;SDS011;42502;40.732;-74.254;2022-09-06T13:02:01;1.75;;;1.20;;
56629;SDS011;42502;40.732;-74.254;2022-09-06T13:04:13;2.45;;;0.95;;
56629;SDS011;42502;40.732;-74.254;2022-09-06T13:06:22;1.90;;;1.00;;
56629;SDS011;42502;40.732;-74.254;2022-09-06T13:08:38;5.13;;;0.93;;
56629;SDS011;42502;40.732;-74.254;2022-09-06T13:10:44;3.53;;;1.20;;
56629;SDS011;42502;40.732;-74.254;2022-09-06T13:12:47;1.58;;;0.98;;
56629;SDS011;42502;40.732;-74.254;2022-09-06T13:14:53;3.10;;;1.00;;
56629;SDS011;42502;40.732;-74.254;2022-09-06T13:16:58;1.98;;;1.10;;
56629;SDS011;42502;40.732;-74.254;2022-09-06T13:21:32;1.77;;;0.90;;
56629;SDS011;42502;40.732;-74.254;2022-09-06T13:23:41;2.75;;;1.20;;
56629;SDS011;42502;40.732;-74.254;2022-09-06T13:25:45;1.92;;;0.85;;
56629;SDS011;42502;40.732;-74.254;2022-09-06T13:27:53;2.65;;;0.90;;
56629;SDS011;42502;40.732;-74.254;2022-09-06T13:32:01;1.48;;;0.93;;
56629;SDS011;42502;40.732;-74.254;2022-09-06T13:34:04;2.35;;;1.00;;
56629;SDS011;42502;40.732;-74.254;2022-09-06T13:36:07;1.33;;;1.00;;
56629;SDS011;42502;40.732;-74.254;2022-09-06T13:38:21;1.08;;;0.90;;
56629;SDS011;42502;40.732;-74.254;2022-09-06T13:40:40;1.70;;;0.90;;